North Haven, Mississippi
Current Conditions -  °F | °C
As of 11:53 PM on Tuesday 21 Oct 2014 (Local Time) from KTUP Reporting Station
Clear Clear  
Wind Chill: 52°   Ceiling: Unl
Heat Index: 52°   Visibility: 10mi
Dew Point: 48°   Wind: 9mph
Humidity: 86%   Direction: 30°NNE
Pressure: 30.08"   Gusts: NA
Location:  34.4917°N, 88.9766°W
Report Text: KTUP 220453Z AUTO 03008KT 10SM CLR 11/09 A3008 RMK AO2 SLP184 T01110089 PWINO
Loading
Personal Weather Stations






























Interactive Weather Map
Tropical Storm Tracking
New forecast layout! Learn more

10-Day Weather Forecast

Advertisements
Track Severe Weather on mobile